sensor_id;sensor_type;location;lat;lon;timestamp;P1;durP1;ratioP1;P2;durP2;ratioP2
74957;SDS011;63741;42.624;26.276;2023-12-20T00:02:12;16.52;;;9.45;;
74957;SDS011;63741;42.624;26.276;2023-12-20T00:04:39;19.17;;;10.15;;
74957;SDS011;63741;42.624;26.276;2023-12-20T00:07:06;18.00;;;9.25;;
74957;SDS011;63741;42.624;26.276;2023-12-20T00:09:33;17.88;;;9.20;;
74957;SDS011;63741;42.624;26.276;2023-12-20T00:12:00;20.00;;;10.57;;
74957;SDS011;63741;42.624;26.276;2023-12-20T00:14:27;18.20;;;10.20;;
74957;SDS011;63741;42.624;26.276;2023-12-20T00:16:54;20.75;;;11.38;;
74957;SDS011;63741;42.624;26.276;2023-12-20T00:19:21;19.08;;;11.18;;
74957;SDS011;63741;42.624;26.276;2023-12-20T00:21:48;17.33;;;9.32;;
74957;SDS011;63741;42.624;26.276;2023-12-20T00:24:16;14.63;;;8.77;;
74957;SDS011;63741;42.624;26.276;2023-12-20T00:26:43;15.88;;;7.85;;
74957;SDS011;63741;42.624;26.276;2023-12-20T00:29:10;13.57;;;8.20;;
74957;SDS011;63741;42.624;26.276;2023-12-20T00:31:36;14.48;;;8.00;;
74957;SDS011;63741;42.624;26.276;2023-12-20T00:34:03;14.65;;;8.23;;
74957;SDS011;63741;42.624;26.276;2023-12-20T00:36:31;13.27;;;7.57;;
74957;SDS011;63741;42.624;26.276;2023-12-20T00:38:58;11.23;;;6.50;;
74957;SDS011;63741;42.624;26.276;2023-12-20T00:41:25;13.50;;;7.00;;
74957;SDS011;63741;42.624;26.276;2023-12-20T00:43:52;11.85;;;6.88;;
74957;SDS011;63741;42.624;26.276;2023-12-20T00:46:19;10.00;;;6.47;;
74957;SDS011;63741;42.624;26.276;2023-12-20T00:48:46;13.13;;;6.72;;
74957;SDS011;63741;42.624;26.276;2023-12-20T00:51:13;11.40;;;7.13;;
74957;SDS011;63741;42.624;26.276;2023-12-20T00:53:40;10.95;;;6.50;;
74957;SDS011;63741;42.624;26.276;2023-12-20T00:56:07;11.05;;;6.22;;
74957;SDS011;63741;42.624;26.276;2023-12-20T00:58:34;14.85;;;6.75;;
74957;SDS011;63741;42.624;26.276;2023-12-20T01:01:01;11.57;;;6.40;;
74957;SDS011;63741;42.624;26.276;2023-12-20T01:03:29;11.63;;;6.18;;
74957;SDS011;63741;42.624;26.276;2023-12-20T01:05:56;11.02;;;6.25;;
74957;SDS011;63741;42.624;26.276;2023-12-20T01:08:23;9.93;;;6.38;;
74957;SDS011;63741;42.624;26.276;2023-12-20T01:10:49;12.00;;;6.60;;
74957;SDS011;63741;42.624;26.276;2023-12-20T01:13:16;11.45;;;6.45;;
74957;SDS011;63741;42.624;26.276;2023-12-20T01:15:43;12.02;;;6.90;;
74957;SDS011;63741;42.624;26.276;2023-12-20T01:18:10;13.75;;;7.57;;
74957;SDS011;63741;42.624;26.276;2023-12-20T01:20:37;11.63;;;7.30;;
74957;SDS011;63741;42.624;26.276;2023-12-20T01:23:04;10.07;;;6.90;;
74957;SDS011;63741;42.624;26.276;2023-12-20T01:25:31;11.07;;;6.05;;
74957;SDS011;63741;42.624;26.276;2023-12-20T01:27:58;10.48;;;6.10;;
74957;SDS011;63741;42.624;26.276;2023-12-20T01:30:25;10.07;;;6.15;;
74957;SDS011;63741;42.624;26.276;2023-12-20T01:32:52;9.40;;;5.93;;
74957;SDS011;63741;42.624;26.276;2023-12-20T01:35:19;10.60;;;5.90;;
74957;SDS011;63741;42.624;26.276;2023-12-20T01:37:46;11.68;;;6.72;;
74957;SDS011;63741;42.624;26.276;2023-12-20T01:40:13;10.35;;;5.72;;
74957;SDS011;63741;42.624;26.276;2023-12-20T01:42:41;11.15;;;6.60;;
74957;SDS011;63741;42.624;26.276;2023-12-20T01:45:08;12.18;;;6.50;;
74957;SDS011;63741;42.624;26.276;2023-12-20T01:47:35;11.10;;;6.07;;
74957;SDS011;63741;42.624;26.276;2023-12-20T01:50:03;10.80;;;5.70;;
74957;SDS011;63741;42.624;26.276;2023-12-20T01:52:30;11.25;;;6.15;;
74957;SDS011;63741;42.624;26.276;2023-12-20T01:55:00;9.80;;;6.03;;
74957;SDS011;63741;42.624;26.276;2023-12-20T01:57:30;11.55;;;5.80;;
74957;SDS011;63741;42.624;26.276;2023-12-20T01:59:57;11.07;;;6.75;;
74957;SDS011;63741;42.624;26.276;2023-12-20T02:02:25;9.70;;;5.88;;
74957;SDS011;63741;42.624;26.276;2023-12-20T02:04:54;13.02;;;6.53;;
74957;SDS011;63741;42.624;26.276;2023-12-20T02:07:21;10.05;;;6.07;;
74957;SDS011;63741;42.624;26.276;2023-12-20T02:09:50;10.90;;;6.63;;
74957;SDS011;63741;42.624;26.276;2023-12-20T02:12:17;12.43;;;7.15;;
74957;SDS011;63741;42.624;26.276;2023-12-20T02:14:45;12.38;;;6.35;;
74957;SDS011;63741;42.624;26.276;2023-12-20T02:17:12;13.50;;;6.57;;
74957;SDS011;63741;42.624;26.276;2023-12-20T02:19:38;11.75;;;7.03;;
74957;SDS011;63741;42.624;26.276;2023-12-20T02:22:07;10.15;;;6.82;;
74957;SDS011;63741;42.624;26.276;2023-12-20T02:24:38;19.73;;;8.50;;
74957;SDS011;63741;42.624;26.276;2023-12-20T02:27:06;14.10;;;7.45;;
74957;SDS011;63741;42.624;26.276;2023-12-20T02:29:34;11.13;;;6.53;;
74957;SDS011;63741;42.624;26.276;2023-12-20T02:32:02;13.23;;;7.00;;
74957;SDS011;63741;42.624;26.276;2023-12-20T02:34:29;12.02;;;6.93;;
74957;SDS011;63741;42.624;26.276;2023-12-20T02:36:56;13.57;;;6.78;;
74957;SDS011;63741;42.624;26.276;2023-12-20T02:39:23;11.02;;;6.63;;
74957;SDS011;63741;42.624;26.276;2023-12-20T02:41:50;15.68;;;8.10;;
74957;SDS011;63741;42.624;26.276;2023-12-20T02:44:17;18.38;;;9.02;;
74957;SDS011;63741;42.624;26.276;2023-12-20T02:46:44;12.27;;;7.15;;
74957;SDS011;63741;42.624;26.276;2023-12-20T02:49:11;19.33;;;9.60;;
74957;SDS011;63741;42.624;26.276;2023-12-20T02:51:38;17.20;;;8.20;;
74957;SDS011;63741;42.624;26.276;2023-12-20T02:54:05;13.38;;;7.82;;
74957;SDS011;63741;42.624;26.276;2023-12-20T02:56:33;15.80;;;8.25;;
74957;SDS011;63741;42.624;26.276;2023-12-20T02:59:00;13.63;;;7.70;;
74957;SDS011;63741;42.624;26.276;2023-12-20T03:01:28;53.92;;;26.67;;
74957;SDS011;63741;42.624;26.276;2023-12-20T03:03:56;41.90;;;23.15;;
74957;SDS011;63741;42.624;26.276;2023-12-20T03:06:23;44.13;;;24.55;;
74957;SDS011;63741;42.624;26.276;2023-12-20T03:08:51;19.67;;;12.48;;
74957;SDS011;63741;42.624;26.276;2023-12-20T03:11:18;14.27;;;10.00;;
74957;SDS011;63741;42.624;26.276;2023-12-20T03:13:45;12.05;;;8.38;;
74957;SDS011;63741;42.624;26.276;2023-12-20T03:16:12;11.25;;;7.07;;
74957;SDS011;63741;42.624;26.276;2023-12-20T03:18:40;14.20;;;8.18;;
74957;SDS011;63741;42.624;26.276;2023-12-20T03:21:07;13.52;;;6.60;;
74957;SDS011;63741;42.624;26.276;2023-12-20T03:23:34;13.65;;;7.32;;
74957;SDS011;63741;42.624;26.276;2023-12-20T03:26:01;13.23;;;7.20;;
74957;SDS011;63741;42.624;26.276;2023-12-20T03:28:29;16.15;;;9.43;;
74957;SDS011;63741;42.624;26.276;2023-12-20T03:30:56;11.95;;;6.88;;
74957;SDS011;63741;42.624;26.276;2023-12-20T03:33:23;11.68;;;6.20;;
74957;SDS011;63741;42.624;26.276;2023-12-20T03:35:50;12.10;;;7.45;;
74957;SDS011;63741;42.624;26.276;2023-12-20T03:38:17;13.10;;;6.75;;
74957;SDS011;63741;42.624;26.276;2023-12-20T03:40:44;10.95;;;6.82;;
74957;SDS011;63741;42.624;26.276;2023-12-20T03:43:11;13.82;;;7.00;;
74957;SDS011;63741;42.624;26.276;2023-12-20T03:45:38;12.60;;;7.50;;
74957;SDS011;63741;42.624;26.276;2023-12-20T03:48:05;11.63;;;6.55;;
74957;SDS011;63741;42.624;26.276;2023-12-20T03:50:33;13.48;;;7.03;;
74957;SDS011;63741;42.624;26.276;2023-12-20T03:53:01;14.70;;;9.05;;
74957;SDS011;63741;42.624;26.276;2023-12-20T03:55:28;20.63;;;10.77;;
74957;SDS011;63741;42.624;26.276;2023-12-20T03:57:55;23.02;;;8.23;;
74957;SDS011;63741;42.624;26.276;2023-12-20T04:00:22;12.20;;;7.28;;
74957;SDS011;63741;42.624;26.276;2023-12-20T04:02:49;16.33;;;7.63;;
74957;SDS011;63741;42.624;26.276;2023-12-20T04:05:16;15.18;;;7.93;;
74957;SDS011;63741;42.624;26.276;2023-12-20T04:07:43;12.07;;;7.28;;
74957;SDS011;63741;42.624;26.276;2023-12-20T04:10:11;12.73;;;7.38;;
74957;SDS011;63741;42.624;26.276;2023-12-20T04:12:38;17.90;;;8.82;;
74957;SDS011;63741;42.624;26.276;2023-12-20T04:15:05;17.55;;;10.15;;
74957;SDS011;63741;42.624;26.276;2023-12-20T04:17:36;16.35;;;8.55;;
74957;SDS011;63741;42.624;26.276;2023-12-20T04:20:03;12.55;;;7.43;;
74957;SDS011;63741;42.624;26.276;2023-12-20T04:22:31;16.27;;;10.48;;
74957;SDS011;63741;42.624;26.276;2023-12-20T04:24:58;24.38;;;14.73;;
74957;SDS011;63741;42.624;26.276;2023-12-20T04:27:25;18.13;;;11.05;;
74957;SDS011;63741;42.624;26.276;2023-12-20T04:29:52;15.85;;;9.43;;
74957;SDS011;63741;42.624;26.276;2023-12-20T04:32:18;18.20;;;10.02;;
74957;SDS011;63741;42.624;26.276;2023-12-20T04:34:45;14.73;;;8.70;;
74957;SDS011;63741;42.624;26.276;2023-12-20T04:37:12;13.55;;;7.70;;
74957;SDS011;63741;42.624;26.276;2023-12-20T04:39:39;12.73;;;8.07;;
74957;SDS011;63741;42.624;26.276;2023-12-20T04:42:08;15.45;;;9.07;;
74957;SDS011;63741;42.624;26.276;2023-12-20T04:44:35;17.17;;;10.60;;
74957;SDS011;63741;42.624;26.276;2023-12-20T04:47:02;20.30;;;10.35;;
74957;SDS011;63741;42.624;26.276;2023-12-20T04:49:29;18.15;;;10.38;;
74957;SDS011;63741;42.624;26.276;2023-12-20T04:51:56;21.92;;;10.27;;
74957;SDS011;63741;42.624;26.276;2023-12-20T04:54:24;19.13;;;9.90;;
74957;SDS011;63741;42.624;26.276;2023-12-20T04:56:51;18.73;;;10.32;;
74957;SDS011;63741;42.624;26.276;2023-12-20T04:59:17;13.50;;;8.73;;
74957;SDS011;63741;42.624;26.276;2023-12-20T05:01:44;15.90;;;8.88;;
74957;SDS011;63741;42.624;26.276;2023-12-20T05:04:11;13.90;;;8.52;;
74957;SDS011;63741;42.624;26.276;2023-12-20T05:06:38;13.07;;;6.70;;
74957;SDS011;63741;42.624;26.276;2023-12-20T05:09:05;12.57;;;6.90;;
74957;SDS011;63741;42.624;26.276;2023-12-20T05:11:33;15.10;;;7.97;;
74957;SDS011;63741;42.624;26.276;2023-12-20T05:13:59;12.50;;;7.55;;
74957;SDS011;63741;42.624;26.276;2023-12-20T05:16:26;12.70;;;7.97;;
74957;SDS011;63741;42.624;26.276;2023-12-20T05:18:54;13.63;;;8.95;;
74957;SDS011;63741;42.624;26.276;2023-12-20T05:21:21;14.18;;;7.78;;
74957;SDS011;63741;42.624;26.276;2023-12-20T05:23:48;15.07;;;7.63;;
74957;SDS011;63741;42.624;26.276;2023-12-20T05:26:15;12.23;;;7.20;;
74957;SDS011;63741;42.624;26.276;2023-12-20T05:28:41;16.73;;;7.70;;
74957;SDS011;63741;42.624;26.276;2023-12-20T05:31:08;14.27;;;7.90;;
74957;SDS011;63741;42.624;26.276;2023-12-20T05:33:35;15.45;;;8.18;;
74957;SDS011;63741;42.624;26.276;2023-12-20T05:36:03;126.20;;;49.05;;
74957;SDS011;63741;42.624;26.276;2023-12-20T05:38:30;185.90;;;82.70;;
74957;SDS011;63741;42.624;26.276;2023-12-20T05:40:57;64.63;;;33.63;;
74957;SDS011;63741;42.624;26.276;2023-12-20T05:43:24;26.38;;;13.32;;
74957;SDS011;63741;42.624;26.276;2023-12-20T05:45:51;32.65;;;17.10;;
74957;SDS011;63741;42.624;26.276;2023-12-20T05:48:18;48.47;;;26.13;;
74957;SDS011;63741;42.624;26.276;2023-12-20T05:50:45;35.42;;;17.25;;
74957;SDS011;63741;42.624;26.276;2023-12-20T05:53:12;15.88;;;10.05;;
74957;SDS011;63741;42.624;26.276;2023-12-20T05:55:39;15.80;;;10.18;;
74957;SDS011;63741;42.624;26.276;2023-12-20T05:58:06;13.18;;;8.13;;
74957;SDS011;63741;42.624;26.276;2023-12-20T06:00:33;16.38;;;9.65;;
74957;SDS011;63741;42.624;26.276;2023-12-20T06:03:00;21.05;;;12.07;;
74957;SDS011;63741;42.624;26.276;2023-12-20T06:05:27;18.35;;;9.65;;
74957;SDS011;63741;42.624;26.276;2023-12-20T06:07:54;16.27;;;9.35;;
74957;SDS011;63741;42.624;26.276;2023-12-20T06:10:23;16.23;;;9.63;;
74957;SDS011;63741;42.624;26.276;2023-12-20T06:12:50;19.25;;;11.15;;
74957;SDS011;63741;42.624;26.276;2023-12-20T06:15:18;19.30;;;10.98;;
74957;SDS011;63741;42.624;26.276;2023-12-20T06:17:45;17.88;;;8.48;;
74957;SDS011;63741;42.624;26.276;2023-12-20T06:20:15;16.60;;;9.57;;
74957;SDS011;63741;42.624;26.276;2023-12-20T06:22:42;34.05;;;14.82;;
74957;SDS011;63741;42.624;26.276;2023-12-20T06:25:09;25.15;;;13.38;;
74957;SDS011;63741;42.624;26.276;2023-12-20T06:27:36;17.80;;;9.27;;
74957;SDS011;63741;42.624;26.276;2023-12-20T06:30:03;13.75;;;8.00;;
74957;SDS011;63741;42.624;26.276;2023-12-20T06:32:30;15.52;;;7.78;;
74957;SDS011;63741;42.624;26.276;2023-12-20T06:34:57;19.13;;;8.48;;
74957;SDS011;63741;42.624;26.276;2023-12-20T06:37:24;32.97;;;12.95;;
74957;SDS011;63741;42.624;26.276;2023-12-20T06:39:51;20.75;;;9.63;;
74957;SDS011;63741;42.624;26.276;2023-12-20T06:42:18;17.33;;;8.32;;
74957;SDS011;63741;42.624;26.276;2023-12-20T06:44:45;18.50;;;10.55;;
74957;SDS011;63741;42.624;26.276;2023-12-20T06:47:12;20.45;;;10.57;;
74957;SDS011;63741;42.624;26.276;2023-12-20T06:49:40;17.08;;;9.85;;
74957;SDS011;63741;42.624;26.276;2023-12-20T06:52:07;21.90;;;12.70;;
74957;SDS011;63741;42.624;26.276;2023-12-20T06:54:34;20.63;;;11.77;;
74957;SDS011;63741;42.624;26.276;2023-12-20T06:57:01;16.77;;;9.27;;
74957;SDS011;63741;42.624;26.276;2023-12-20T06:59:30;15.60;;;8.82;;
74957;SDS011;63741;42.624;26.276;2023-12-20T07:01:57;17.42;;;9.38;;
74957;SDS011;63741;42.624;26.276;2023-12-20T07:04:24;29.63;;;13.52;;
74957;SDS011;63741;42.624;26.276;2023-12-20T07:06:51;68.30;;;30.67;;
74957;SDS011;63741;42.624;26.276;2023-12-20T07:09:20;32.53;;;22.70;;
74957;SDS011;63741;42.624;26.276;2023-12-20T07:11:47;13.98;;;9.30;;
74957;SDS011;63741;42.624;26.276;2023-12-20T07:14:14;34.25;;;20.20;;
74957;SDS011;63741;42.624;26.276;2023-12-20T07:16:41;42.83;;;20.30;;
74957;SDS011;63741;42.624;26.276;2023-12-20T07:19:08;33.55;;;15.32;;
74957;SDS011;63741;42.624;26.276;2023-12-20T07:21:35;38.67;;;16.40;;
74957;SDS011;63741;42.624;26.276;2023-12-20T07:24:02;29.98;;;12.50;;
74957;SDS011;63741;42.624;26.276;2023-12-20T07:26:29;39.17;;;15.70;;
74957;SDS011;63741;42.624;26.276;2023-12-20T07:28:56;21.95;;;10.98;;
74957;SDS011;63741;42.624;26.276;2023-12-20T07:31:23;19.40;;;9.93;;
74957;SDS011;63741;42.624;26.276;2023-12-20T07:33:50;33.55;;;14.60;;
74957;SDS011;63741;42.624;26.276;2023-12-20T07:36:19;13.20;;;6.68;;
74957;SDS011;63741;42.624;26.276;2023-12-20T07:38:46;28.70;;;11.90;;
74957;SDS011;63741;42.624;26.276;2023-12-20T07:41:13;29.27;;;13.13;;
74957;SDS011;63741;42.624;26.276;2023-12-20T07:43:42;29.35;;;14.80;;
74957;SDS011;63741;42.624;26.276;2023-12-20T07:46:09;34.53;;;15.23;;
74957;SDS011;63741;42.624;26.276;2023-12-20T07:48:36;27.13;;;12.43;;
74957;SDS011;63741;42.624;26.276;2023-12-20T07:51:03;21.02;;;10.98;;
74957;SDS011;63741;42.624;26.276;2023-12-20T07:53:32;13.80;;;7.60;;
74957;SDS011;63741;42.624;26.276;2023-12-20T07:55:59;28.52;;;13.57;;
74957;SDS011;63741;42.624;26.276;2023-12-20T07:58:26;22.77;;;11.73;;
74957;SDS011;63741;42.624;26.276;2023-12-20T08:01:11;21.33;;;11.73;;
74957;SDS011;63741;42.624;26.276;2023-12-20T08:03:38;22.98;;;11.63;;
74957;SDS011;63741;42.624;26.276;2023-12-20T08:06:05;14.40;;;7.25;;
74957;SDS011;63741;42.624;26.276;2023-12-20T08:08:32;18.40;;;9.65;;
74957;SDS011;63741;42.624;26.276;2023-12-20T08:10:59;20.10;;;10.75;;
74957;SDS011;63741;42.624;26.276;2023-12-20T08:13:26;31.88;;;8.93;;
74957;SDS011;63741;42.624;26.276;2023-12-20T08:15:53;14.82;;;8.60;;
74957;SDS011;63741;42.624;26.276;2023-12-20T08:18:22;15.35;;;8.45;;
74957;SDS011;63741;42.624;26.276;2023-12-20T08:20:50;18.75;;;10.07;;
74957;SDS011;63741;42.624;26.276;2023-12-20T08:23:19;19.13;;;9.45;;
74957;SDS011;63741;42.624;26.276;2023-12-20T08:25:50;12.02;;;6.78;;
74957;SDS011;63741;42.624;26.276;2023-12-20T08:28:17;16.02;;;7.53;;
74957;SDS011;63741;42.624;26.276;2023-12-20T08:30:44;15.32;;;8.63;;
74957;SDS011;63741;42.624;26.276;2023-12-20T08:33:11;10.70;;;6.78;;
74957;SDS011;63741;42.624;26.276;2023-12-20T08:35:39;20.80;;;10.77;;
74957;SDS011;63741;42.624;26.276;2023-12-20T08:38:07;16.50;;;10.45;;
74957;SDS011;63741;42.624;26.276;2023-12-20T08:40:33;9.25;;;6.82;;
74957;SDS011;63741;42.624;26.276;2023-12-20T08:43:01;15.27;;;9.55;;
74957;SDS011;63741;42.624;26.276;2023-12-20T08:45:28;19.13;;;11.55;;
74957;SDS011;63741;42.624;26.276;2023-12-20T08:47:55;10.65;;;7.00;;
74957;SDS011;63741;42.624;26.276;2023-12-20T08:50:26;19.65;;;7.30;;
74957;SDS011;63741;42.624;26.276;2023-12-20T08:52:53;15.75;;;8.65;;
74957;SDS011;63741;42.624;26.276;2023-12-20T08:55:20;10.95;;;6.72;;
74957;SDS011;63741;42.624;26.276;2023-12-20T08:57:47;18.95;;;7.25;;
74957;SDS011;63741;42.624;26.276;2023-12-20T09:00:14;17.48;;;7.47;;
74957;SDS011;63741;42.624;26.276;2023-12-20T09:02:42;52.63;;;10.80;;
74957;SDS011;63741;42.624;26.276;2023-12-20T09:05:09;18.85;;;9.77;;
74957;SDS011;63741;42.624;26.276;2023-12-20T09:07:36;17.88;;;8.43;;
74957;SDS011;63741;42.624;26.276;2023-12-20T09:10:03;62.40;;;9.95;;
74957;SDS011;63741;42.624;26.276;2023-12-20T09:12:30;16.88;;;8.27;;
74957;SDS011;63741;42.624;26.276;2023-12-20T09:14:57;16.48;;;8.18;;
74957;SDS011;63741;42.624;26.276;2023-12-20T09:17:24;14.88;;;8.05;;
74957;SDS011;63741;42.624;26.276;2023-12-20T09:19:54;14.82;;;7.40;;
74957;SDS011;63741;42.624;26.276;2023-12-20T09:22:21;14.95;;;8.35;;
74957;SDS011;63741;42.624;26.276;2023-12-20T09:24:48;23.70;;;9.75;;
74957;SDS011;63741;42.624;26.276;2023-12-20T09:27:15;11.23;;;6.70;;
74957;SDS011;63741;42.624;26.276;2023-12-20T09:29:42;17.90;;;8.43;;
74957;SDS011;63741;42.624;26.276;2023-12-20T09:32:09;15.18;;;9.27;;
74957;SDS011;63741;42.624;26.276;2023-12-20T09:34:36;23.75;;;11.18;;
74957;SDS011;63741;42.624;26.276;2023-12-20T09:37:04;27.40;;;12.55;;
74957;SDS011;63741;42.624;26.276;2023-12-20T09:39:34;36.08;;;17.33;;
74957;SDS011;63741;42.624;26.276;2023-12-20T09:42:01;29.08;;;13.13;;
74957;SDS011;63741;42.624;26.276;2023-12-20T09:44:30;32.53;;;16.13;;
74957;SDS011;63741;42.624;26.276;2023-12-20T09:46:59;45.95;;;19.10;;
74957;SDS011;63741;42.624;26.276;2023-12-20T09:49:30;26.83;;;11.85;;
74957;SDS011;63741;42.624;26.276;2023-12-20T09:51:57;15.98;;;6.28;;
74957;SDS011;63741;42.624;26.276;2023-12-20T09:54:27;30.80;;;13.43;;
74957;SDS011;63741;42.624;26.276;2023-12-20T09:56:55;29.67;;;10.02;;
74957;SDS011;63741;42.624;26.276;2023-12-20T09:59:22;48.90;;;12.68;;
74957;SDS011;63741;42.624;26.276;2023-12-20T10:01:49;24.88;;;11.43;;
74957;SDS011;63741;42.624;26.276;2023-12-20T10:04:22;12.95;;;6.88;;
74957;SDS011;63741;42.624;26.276;2023-12-20T10:06:56;16.17;;;6.30;;
74957;SDS011;63741;42.624;26.276;2023-12-20T10:09:23;14.13;;;6.72;;
74957;SDS011;63741;42.624;26.276;2023-12-20T10:11:53;13.00;;;7.30;;
74957;SDS011;63741;42.624;26.276;2023-12-20T10:14:21;14.60;;;8.05;;
74957;SDS011;63741;42.624;26.276;2023-12-20T10:16:50;30.40;;;9.80;;
74957;SDS011;63741;42.624;26.276;2023-12-20T10:19:17;24.52;;;9.63;;
74957;SDS011;63741;42.624;26.276;2023-12-20T10:21:45;12.02;;;6.50;;
74957;SDS011;63741;42.624;26.276;2023-12-20T10:24:16;13.98;;;7.05;;
74957;SDS011;63741;42.624;26.276;2023-12-20T10:26:44;9.38;;;4.60;;
74957;SDS011;63741;42.624;26.276;2023-12-20T10:29:11;7.88;;;3.92;;
74957;SDS011;63741;42.624;26.276;2023-12-20T10:31:38;9.57;;;5.13;;
74957;SDS011;63741;42.624;26.276;2023-12-20T10:34:05;5.40;;;3.80;;
74957;SDS011;63741;42.624;26.276;2023-12-20T10:36:32;141.73;;;11.52;;
74957;SDS011;63741;42.624;26.276;2023-12-20T10:38:59;24.73;;;4.47;;
74957;SDS011;63741;42.624;26.276;2023-12-20T10:44:02;12.65;;;5.82;;
74957;SDS011;63741;42.624;26.276;2023-12-20T10:46:33;14.98;;;5.30;;
74957;SDS011;63741;42.624;26.276;2023-12-20T10:49:04;19.77;;;5.30;;
74957;SDS011;63741;42.624;26.276;2023-12-20T10:51:34;6.70;;;3.88;;
74957;SDS011;63741;42.624;26.276;2023-12-20T10:54:01;7.72;;;3.80;;
74957;SDS011;63741;42.624;26.276;2023-12-20T10:56:29;7.90;;;3.75;;
74957;SDS011;63741;42.624;26.276;2023-12-20T10:58:59;15.43;;;4.50;;
74957;SDS011;63741;42.624;26.276;2023-12-20T11:01:30;19.63;;;4.88;;
74957;SDS011;63741;42.624;26.276;2023-12-20T11:03:58;19.02;;;4.68;;
74957;SDS011;63741;42.624;26.276;2023-12-20T11:09:19;15.25;;;4.70;;
74957;SDS011;63741;42.624;26.276;2023-12-20T11:11:59;17.00;;;5.40;;
74957;SDS011;63741;42.624;26.276;2023-12-20T11:17:13;8.05;;;4.60;;
74957;SDS011;63741;42.624;26.276;2023-12-20T11:22:22;10.70;;;4.05;;
74957;SDS011;63741;42.624;26.276;2023-12-20T11:24:53;55.40;;;5.97;;
74957;SDS011;63741;42.624;26.276;2023-12-20T11:27:20;21.38;;;4.18;;
74957;SDS011;63741;42.624;26.276;2023-12-20T11:29:57;7.03;;;3.65;;
74957;SDS011;63741;42.624;26.276;2023-12-20T11:34:58;16.05;;;4.10;;
74957;SDS011;63741;42.624;26.276;2023-12-20T11:37:46;19.30;;;4.40;;
74957;SDS011;63741;42.624;26.276;2023-12-20T11:40:16;7.75;;;3.72;;
74957;SDS011;63741;42.624;26.276;2023-12-20T11:42:45;37.28;;;5.00;;
74957;SDS011;63741;42.624;26.276;2023-12-20T11:45:19;9.75;;;4.47;;
74957;SDS011;63741;42.624;26.276;2023-12-20T11:47:51;7.07;;;3.63;;
74957;SDS011;63741;42.624;26.276;2023-12-20T11:50:21;70.00;;;7.53;;
74957;SDS011;63741;42.624;26.276;2023-12-20T11:52:52;6.50;;;4.05;;
74957;SDS011;63741;42.624;26.276;2023-12-20T11:55:19;13.70;;;5.22;;
74957;SDS011;63741;42.624;26.276;2023-12-20T11:57:47;11.10;;;4.13;;
74957;SDS011;63741;42.624;26.276;2023-12-20T12:00:14;41.30;;;4.93;;
74957;SDS011;63741;42.624;26.276;2023-12-20T12:02:42;5.32;;;3.22;;
74957;SDS011;63741;42.624;26.276;2023-12-20T12:05:12;21.63;;;4.38;;
74957;SDS011;63741;42.624;26.276;2023-12-20T12:07:40;29.52;;;7.80;;
74957;SDS011;63741;42.624;26.276;2023-12-20T12:10:07;81.30;;;7.63;;
74957;SDS011;63741;42.624;26.276;2023-12-20T12:12:34;16.60;;;4.88;;
74957;SDS011;63741;42.624;26.276;2023-12-20T12:15:02;9.15;;;3.75;;
74957;SDS011;63741;42.624;26.276;2023-12-20T12:17:29;115.85;;;8.55;;
74957;SDS011;63741;42.624;26.276;2023-12-20T12:20:02;13.45;;;3.97;;
74957;SDS011;63741;42.624;26.276;2023-12-20T12:22:31;44.88;;;7.18;;
74957;SDS011;63741;42.624;26.276;2023-12-20T12:25:05;12.35;;;4.05;;
74957;SDS011;63741;42.624;26.276;2023-12-20T12:27:37;22.75;;;4.53;;
74957;SDS011;63741;42.624;26.276;2023-12-20T12:30:06;21.00;;;3.88;;
74957;SDS011;63741;42.624;26.276;2023-12-20T12:32:36;15.55;;;3.80;;
74957;SDS011;63741;42.624;26.276;2023-12-20T12:35:04;123.68;;;10.35;;
74957;SDS011;63741;42.624;26.276;2023-12-20T12:37:37;15.52;;;4.90;;
74957;SDS011;63741;42.624;26.276;2023-12-20T12:40:06;6.57;;;4.68;;
74957;SDS011;63741;42.624;26.276;2023-12-20T12:42:40;9.60;;;5.10;;
74957;SDS011;63741;42.624;26.276;2023-12-20T12:45:08;37.67;;;6.03;;
74957;SDS011;63741;42.624;26.276;2023-12-20T12:47:35;11.50;;;4.60;;
74957;SDS011;63741;42.624;26.276;2023-12-20T12:50:03;16.88;;;5.38;;
74957;SDS011;63741;42.624;26.276;2023-12-20T12:52:31;8.85;;;4.55;;
74957;SDS011;63741;42.624;26.276;2023-12-20T12:54:58;6.68;;;3.97;;
74957;SDS011;63741;42.624;26.276;2023-12-20T12:57:25;13.57;;;4.13;;
74957;SDS011;63741;42.624;26.276;2023-12-20T12:59:53;34.70;;;5.43;;
74957;SDS011;63741;42.624;26.276;2023-12-20T13:02:20;20.65;;;4.10;;
74957;SDS011;63741;42.624;26.276;2023-12-20T13:04:46;7.70;;;2.78;;
74957;SDS011;63741;42.624;26.276;2023-12-20T13:07:14;12.80;;;3.63;;
74957;SDS011;63741;42.624;26.276;2023-12-20T13:09:41;150.45;;;9.82;;
74957;SDS011;63741;42.624;26.276;2023-12-20T13:12:08;8.75;;;3.55;;
74957;SDS011;63741;42.624;26.276;2023-12-20T13:14:35;7.65;;;3.35;;
74957;SDS011;63741;42.624;26.276;2023-12-20T13:17:05;16.55;;;3.40;;
74957;SDS011;63741;42.624;26.276;2023-12-20T13:19:32;10.65;;;3.33;;
74957;SDS011;63741;42.624;26.276;2023-12-20T13:22:00;11.55;;;2.88;;
74957;SDS011;63741;42.624;26.276;2023-12-20T13:24:27;4.47;;;3.10;;
74957;SDS011;63741;42.624;26.276;2023-12-20T13:26:55;22.05;;;4.05;;
74957;SDS011;63741;42.624;26.276;2023-12-20T13:29:23;10.55;;;3.80;;
74957;SDS011;63741;42.624;26.276;2023-12-20T13:31:53;7.80;;;3.50;;
74957;SDS011;63741;42.624;26.276;2023-12-20T13:34:20;5.57;;;3.42;;
74957;SDS011;63741;42.624;26.276;2023-12-20T13:36:48;18.52;;;3.72;;
74957;SDS011;63741;42.624;26.276;2023-12-20T13:39:17;11.80;;;4.47;;
74957;SDS011;63741;42.624;26.276;2023-12-20T13:41:44;18.60;;;5.20;;
74957;SDS011;63741;42.624;26.276;2023-12-20T13:44:11;26.95;;;9.05;;
74957;SDS011;63741;42.624;26.276;2023-12-20T13:46:39;11.73;;;5.05;;
74957;SDS011;63741;42.624;26.276;2023-12-20T13:49:07;21.75;;;5.22;;
74957;SDS011;63741;42.624;26.276;2023-12-20T13:51:35;19.25;;;6.40;;
74957;SDS011;63741;42.624;26.276;2023-12-20T13:54:02;30.08;;;10.75;;
74957;SDS011;63741;42.624;26.276;2023-12-20T13:56:29;40.05;;;7.82;;
74957;SDS011;63741;42.624;26.276;2023-12-20T13:58:56;28.27;;;9.93;;
74957;SDS011;63741;42.624;26.276;2023-12-20T14:01:23;32.03;;;6.93;;
74957;SDS011;63741;42.624;26.276;2023-12-20T14:03:50;49.70;;;7.57;;
74957;SDS011;63741;42.624;26.276;2023-12-20T14:06:17;16.42;;;6.85;;
74957;SDS011;63741;42.624;26.276;2023-12-20T14:08:44;14.43;;;5.90;;
74957;SDS011;63741;42.624;26.276;2023-12-20T14:11:12;36.65;;;5.97;;
74957;SDS011;63741;42.624;26.276;2023-12-20T14:13:40;14.80;;;5.13;;
74957;SDS011;63741;42.624;26.276;2023-12-20T14:16:07;24.15;;;5.60;;
74957;SDS011;63741;42.624;26.276;2023-12-20T14:18:34;23.63;;;6.80;;
74957;SDS011;63741;42.624;26.276;2023-12-20T14:21:01;19.08;;;8.85;;
74957;SDS011;63741;42.624;26.276;2023-12-20T14:23:28;21.25;;;8.50;;
74957;SDS011;63741;42.624;26.276;2023-12-20T14:25:55;15.40;;;7.05;;
74957;SDS011;63741;42.624;26.276;2023-12-20T14:28:23;34.00;;;14.57;;
74957;SDS011;63741;42.624;26.276;2023-12-20T14:30:50;49.20;;;21.02;;
74957;SDS011;63741;42.624;26.276;2023-12-20T14:33:18;54.30;;;23.08;;
74957;SDS011;63741;42.624;26.276;2023-12-20T14:35:47;50.95;;;22.45;;